createdAt,value
2018-04-12T00:01:06.363Z,5.90
2018-04-12T00:05:40.334Z,6.20
2018-04-12T00:10:13.592Z,6.57
2018-04-12T00:14:47.601Z,5.40
2018-04-12T00:19:21.545Z,9.33
2018-04-12T00:23:55.527Z,8.57
2018-04-12T00:28:28.745Z,8.33
2018-04-12T00:33:01.986Z,6.90
2018-04-12T00:37:35.926Z,5.53
2018-04-12T00:42:09.127Z,7.97
2018-04-12T00:46:43.366Z,8.67
2018-04-12T00:51:16.695Z,8.77
2018-04-12T00:55:49.927Z,7.67
2018-04-12T01:00:23.154Z,6.83
2018-04-12T01:04:57.185Z,9.17
2018-04-12T01:09:30.472Z,7.13
2018-04-12T01:14:03.638Z,8.57
2018-04-12T01:18:36.813Z,6.47
2018-04-12T01:23:10.058Z,7.07
2018-04-12T01:27:43.209Z,9.77
2018-04-12T01:32:16.531Z,9.30
2018-04-12T01:36:50.567Z,10.10
2018-04-12T01:41:24.528Z,8.23
2018-04-12T01:45:57.773Z,6.43
2018-04-12T01:50:30.955Z,9.90
2018-04-12T01:55:04.430Z,10.30
2018-04-12T01:59:37.671Z,10.67
2018-04-12T02:04:10.904Z,12.03
2018-04-12T02:08:44.971Z,12.17
2018-04-12T02:13:18.225Z,11.33
2018-04-12T02:17:51.494Z,10.63
2018-04-12T02:22:24.752Z,11.77
2018-04-12T02:26:58.838Z,9.20
2018-04-12T02:31:32.019Z,12.77
2018-04-12T02:36:05.974Z,9.77
2018-04-12T02:40:39.203Z,8.70
2018-04-12T02:45:12.425Z,10.73
2018-04-12T02:49:45.609Z,11.73
2018-04-12T02:54:18.802Z,12.43
2018-04-12T02:58:53.425Z,14.33
2018-04-12T03:03:27.445Z,8.73
2018-04-12T03:08:01.591Z,9.53
2018-04-12T03:12:34.798Z,11.70
2018-04-12T03:17:08.064Z,14.63
2018-04-12T03:21:42.080Z,11.33
2018-04-12T03:26:16.131Z,9.20
2018-04-12T03:30:50.155Z,11.70
2018-04-12T03:35:24.133Z,17.07
2018-04-12T03:39:57.384Z,11.50
2018-04-12T03:44:31.550Z,10.77
2018-04-12T03:49:04.905Z,7.40
2018-04-12T03:53:38.066Z,10.00
2018-04-12T03:58:11.338Z,16.60
2018-04-12T04:02:45.995Z,24.37
2018-04-12T04:07:19.278Z,12.77
2018-04-12T04:11:52.490Z,10.50
2018-04-12T04:16:38.535Z,10.27
2018-04-12T04:21:14.596Z,14.50
2018-04-12T04:25:47.971Z,12.77
2018-04-12T04:30:22.320Z,11.63
2018-04-12T04:34:56.380Z,11.33
2018-04-12T04:39:29.748Z,15.63
2018-04-12T04:44:03.253Z,14.97
2018-04-12T04:48:37.351Z,12.20
2018-04-12T04:53:11.452Z,8.80
2018-04-12T04:57:44.689Z,11.27
2018-04-12T05:02:17.934Z,11.30
2018-04-12T05:06:51.974Z,8.77
2018-04-12T05:11:25.245Z,11.23
2018-04-12T05:15:58.488Z,12.87
2018-04-12T05:20:31.816Z,12.40
2018-04-12T05:25:05.009Z,13.17
2018-04-12T05:29:38.286Z,12.80
2018-04-12T05:34:11.557Z,14.17
2018-04-12T05:38:44.793Z,13.73
2018-04-12T05:43:18.011Z,14.87
2018-04-12T05:47:51.234Z,13.40
2018-04-12T05:52:24.482Z,12.77
2018-04-12T05:56:57.760Z,13.80
2018-04-12T06:01:30.990Z,13.27
2018-04-12T06:06:04.239Z,13.67
2018-04-12T06:10:37.433Z,16.23
2018-04-12T06:15:10.680Z,19.77
2018-04-12T06:19:44.672Z,19.97
2018-04-12T06:24:17.943Z,18.00
2018-04-12T06:28:51.156Z,18.97
2018-04-12T06:33:24.416Z,20.30
2018-04-12T06:37:58.651Z,20.87
2018-04-12T06:42:32.811Z,21.30
2018-04-12T06:47:06.010Z,20.53
2018-04-12T06:51:39.294Z,21.73
2018-04-12T06:56:13.300Z,21.35
2018-04-12T07:00:46.525Z,22.52
2018-04-12T07:05:20.491Z,21.07
2018-04-12T07:09:53.725Z,21.17
2018-04-12T07:14:26.951Z,22.30
2018-04-12T07:19:00.193Z,20.90
2018-04-12T07:23:33.414Z,19.85
2018-04-12T07:28:06.671Z,19.08
2018-04-12T07:32:39.933Z,20.12
2018-04-12T07:37:13.179Z,19.48
2018-04-12T07:41:46.514Z,19.70
2018-04-12T07:46:20.537Z,19.90
2018-04-12T07:50:54.537Z,20.85
2018-04-12T07:55:27.709Z,18.90
2018-04-12T08:00:01.067Z,18.42
2018-04-12T08:04:34.290Z,19.67
2018-04-12T08:09:08.346Z,19.40
2018-04-12T08:13:41.631Z,17.67
2018-04-12T08:18:15.613Z,18.65
2018-04-12T08:22:48.932Z,18.15
2018-04-12T08:27:23.816Z,19.92
2018-04-12T08:31:57.049Z,18.62
2018-04-12T08:36:30.309Z,18.20
2018-04-12T08:41:04.391Z,16.08
2018-04-12T08:45:37.642Z,16.52
2018-04-12T08:50:11.068Z,16.40
2018-04-12T08:54:45.155Z,17.25
2018-04-12T08:59:18.435Z,16.55
2018-04-12T09:03:51.773Z,15.65
2018-04-12T09:08:25.034Z,15.60
2018-04-12T09:12:59.469Z,16.80
2018-04-12T09:17:32.770Z,15.07
2018-04-12T09:22:06.725Z,15.60
2018-04-12T09:26:41.176Z,14.63
2018-04-12T09:31:15.371Z,14.85
2018-04-12T09:35:49.398Z,13.68
2018-04-12T09:40:23.411Z,13.57
2018-04-12T09:44:57.481Z,13.30
2018-04-12T09:49:30.708Z,12.57
2018-04-12T09:54:04.003Z,13.43
2018-04-12T09:58:37.359Z,12.60
2018-04-12T10:03:12.353Z,12.43
2018-04-12T10:07:51.206Z,11.23
2018-04-12T10:12:24.597Z,9.88
2018-04-12T10:16:57.915Z,9.45
2018-04-12T10:21:31.149Z,9.50
2018-04-12T10:26:04.416Z,9.52
2018-04-12T10:30:37.637Z,8.88
2018-04-12T10:35:10.877Z,8.68
2018-04-12T10:39:44.133Z,8.02
2018-04-12T10:44:17.477Z,7.40
2018-04-12T10:48:50.719Z,5.82
2018-04-12T10:53:24.044Z,5.60
2018-04-12T10:57:57.498Z,5.68
2018-04-12T11:02:30.678Z,5.25
2018-04-12T11:07:04.296Z,4.82
2018-04-12T11:11:37.581Z,5.00
2018-04-12T11:16:11.589Z,5.07
2018-04-12T11:20:44.826Z,5.60
2018-04-12T11:25:19.180Z,4.85
2018-04-12T11:29:52.766Z,4.80
2018-04-12T11:34:26.050Z,4.78
2018-04-12T11:38:59.245Z,4.65
2018-04-12T11:43:32.446Z,4.78
2018-04-12T11:48:08.095Z,4.60
2018-04-12T11:52:42.810Z,4.50
2018-04-12T11:57:16.216Z,4.47
2018-04-12T12:01:55.098Z,4.10
2018-04-12T12:06:28.366Z,5.62
2018-04-12T12:11:02.070Z,4.20
2018-04-12T12:15:35.282Z,4.35
2018-04-12T12:20:09.254Z,3.85
2018-04-12T12:24:42.552Z,3.30
2018-04-12T12:29:15.917Z,3.37
2018-04-12T12:33:49.514Z,3.20
2018-04-12T12:38:23.564Z,3.60
2018-04-12T12:42:56.914Z,3.35
2018-04-12T12:47:30.304Z,3.65
2018-04-12T12:52:03.596Z,3.50
2018-04-12T12:56:36.874Z,3.35
2018-04-12T13:01:10.216Z,3.60
2018-04-12T13:05:43.574Z,3.10
2018-04-12T13:10:16.829Z,3.33
2018-04-12T13:14:50.043Z,3.25
2018-04-12T13:19:24.027Z,3.78
2018-04-12T13:23:57.240Z,3.62
2018-04-12T13:28:31.888Z,3.75
2018-04-12T13:33:05.100Z,3.65
2018-04-12T13:37:39.095Z,3.20
2018-04-12T13:42:13.009Z,3.45
2018-04-12T13:46:46.262Z,3.67
2018-04-12T13:51:19.438Z,3.30
2018-04-12T13:55:52.648Z,3.62
2018-04-12T14:00:25.879Z,4.12
2018-04-12T14:05:00.578Z,4.00
2018-04-12T14:09:33.783Z,3.40
2018-04-12T14:14:07.087Z,4.00
2018-04-12T14:18:40.281Z,3.78
2018-04-12T14:23:13.967Z,5.80
2018-04-12T14:27:47.933Z,4.00
2018-04-12T14:32:21.300Z,3.90
2018-04-12T14:36:55.276Z,3.50
2018-04-12T14:41:28.917Z,3.40
2018-04-12T14:46:02.254Z,3.83
2018-04-12T14:50:36.263Z,3.53
2018-04-12T14:55:10.929Z,4.15
2018-04-12T14:59:45.149Z,3.70
2018-04-12T15:04:19.202Z,3.70
2018-04-12T15:08:52.413Z,4.07
2018-04-12T15:13:25.789Z,3.20
2018-04-12T15:17:59.800Z,3.55
2018-04-12T15:22:33.812Z,3.33
2018-04-12T15:27:07.023Z,3.30
2018-04-12T15:31:40.358Z,2.80
2018-04-12T15:36:14.367Z,3.20
2018-04-12T15:40:47.530Z,2.83
2018-04-12T15:45:20.999Z,2.83
2018-04-12T15:49:54.365Z,3.17
2018-04-12T15:54:27.553Z,3.20
2018-04-12T15:59:00.774Z,3.35
2018-04-12T16:03:34.006Z,3.80
2018-04-12T16:08:07.241Z,3.58
2018-04-12T16:12:41.266Z,3.20
2018-04-12T16:17:15.216Z,3.03
2018-04-12T16:21:48.497Z,2.70
2018-04-12T16:26:22.460Z,2.90
2018-04-12T16:30:55.698Z,2.50
2018-04-12T16:35:28.976Z,2.58
2018-04-12T16:40:02.182Z,2.90
2018-04-12T16:44:35.671Z,2.70
2018-04-12T16:49:09.081Z,2.00
2018-04-12T16:53:43.071Z,2.50
2018-04-12T16:58:16.331Z,2.47
2018-04-12T17:02:49.561Z,2.20
2018-04-12T17:07:22.790Z,2.62
2018-04-12T17:11:56.347Z,3.08
2018-04-12T17:16:30.324Z,2.28
2018-04-12T17:21:04.274Z,3.12
2018-04-12T17:25:38.230Z,3.10
2018-04-12T17:30:11.423Z,3.62
2018-04-12T17:34:45.373Z,2.45
2018-04-12T17:39:18.579Z,1.90
2018-04-12T17:43:51.852Z,2.42
2018-04-12T17:48:25.814Z,2.47
2018-04-12T17:52:59.039Z,1.98
2018-04-12T17:57:32.255Z,2.10
2018-04-12T18:02:05.481Z,2.00
2018-04-12T18:06:39.297Z,2.15
2018-04-12T18:11:12.712Z,3.08
2018-04-12T18:15:45.942Z,2.80
2018-04-12T18:20:19.918Z,3.78
2018-04-12T18:24:53.164Z,3.28
2018-04-12T18:29:26.357Z,3.33
2018-04-12T18:34:01.061Z,4.00
2018-04-12T18:38:34.275Z,2.70
2018-04-12T18:43:07.483Z,5.18
2018-04-12T18:47:40.714Z,5.57
2018-04-12T18:52:13.958Z,7.85
2018-04-12T18:56:47.926Z,5.40
2018-04-12T19:01:21.115Z,4.00
2018-04-12T19:05:55.009Z,4.70
2018-04-12T19:10:28.287Z,11.75
2018-04-12T19:15:01.516Z,8.53
2018-04-12T19:19:35.519Z,7.33
2018-04-12T19:24:08.769Z,9.03
2018-04-12T19:28:42.063Z,4.70
2018-04-12T19:33:16.083Z,5.00
2018-04-12T19:37:50.096Z,9.63
2018-04-12T19:42:24.110Z,8.73
2018-04-12T19:46:57.472Z,4.40
2018-04-12T19:51:30.722Z,6.90
2018-04-12T19:56:03.932Z,6.87
2018-04-12T20:00:37.172Z,10.20
2018-04-12T20:05:11.144Z,9.67
2018-04-12T20:09:44.411Z,9.17
2018-04-12T20:14:18.434Z,16.13
2018-04-12T20:18:51.878Z,9.57
2018-04-12T20:23:25.432Z,6.37
2018-04-12T20:27:58.807Z,6.23
2018-04-12T20:32:32.177Z,4.50
2018-04-12T20:37:06.171Z,3.73
2018-04-12T20:41:39.393Z,15.47
2018-04-12T20:46:14.183Z,4.30
2018-04-12T20:50:47.621Z,6.37
2018-04-12T20:55:20.895Z,6.30
2018-04-12T20:59:54.119Z,6.03
2018-04-12T21:04:27.332Z,6.10
2018-04-12T21:09:00.531Z,7.93
2018-04-12T21:13:33.741Z,4.70
2018-04-12T21:18:06.953Z,17.50
2018-04-12T21:22:40.638Z,7.03
2018-04-12T21:27:14.607Z,5.97
2018-04-12T21:31:47.799Z,15.30
2018-04-12T21:36:21.027Z,10.23
2018-04-12T21:40:54.273Z,6.10
2018-04-12T21:45:28.258Z,6.00
2018-04-12T21:50:01.498Z,4.00
2018-04-12T21:54:35.542Z,4.97
2018-04-12T21:59:08.943Z,24.43
2018-04-12T22:03:42.871Z,10.93
2018-04-12T22:08:16.857Z,4.67
2018-04-12T22:12:50.085Z,7.13
2018-04-12T22:17:23.343Z,18.70
2018-04-12T22:21:56.559Z,8.73
2018-04-12T22:26:29.794Z,6.47
2018-04-12T22:31:03.042Z,5.60
2018-04-12T22:35:36.286Z,6.83
2018-04-12T22:40:09.442Z,7.70
2018-04-12T22:44:43.439Z,7.03
2018-04-12T22:49:16.626Z,7.43
2018-04-12T22:53:49.861Z,5.73
2018-04-12T22:58:23.135Z,4.30
2018-04-12T23:02:56.376Z,5.17
2018-04-12T23:07:29.614Z,4.83
2018-04-12T23:12:03.585Z,5.03
2018-04-12T23:16:36.836Z,4.63
2018-04-12T23:21:10.148Z,3.80
2018-04-12T23:25:44.094Z,3.80
2018-04-12T23:30:17.253Z,3.80
2018-04-12T23:34:50.498Z,3.80
2018-04-12T23:39:23.732Z,4.53
2018-04-12T23:43:56.994Z,4.20
2018-04-12T23:48:30.206Z,3.80
2018-04-12T23:53:04.222Z,4.50
2018-04-12T23:57:38.233Z,4.10
